Time;durP1;ratioP1;P1;durP2;ratioP2;P2;SDS_P1;SDS_P2;PMS_P1;PMS_P2;Temp;Humidity;BMP_temperature;BMP_pressure;BME280_temperature;BME280_humidity;BME280_pressure;Samples;Min_cycle;Max_cycle;Signal;HPM_P1;HPM_P2
2022/01/14 00:02:16;;;;;;;73.63;24.02;;;-1.40;99.90;;;;;;5035727;28;20068;-75
2022/01/14 00:04:42;;;;;;;69.10;23.77;;;-1.30;99.90;;;;;;5045648;28;20659;-77
2022/01/14 00:07:09;;;;;;;75.45;23.88;;;-1.40;99.90;;;;;;5029161;28;20025;-75
2022/01/14 00:09:36;;;;;;;80.57;24.88;;;-1.40;99.90;;;;;;5047439;28;20041;-75
2022/01/14 00:12:09;;;;;;;79.32;24.52;;;-1.50;99.90;;;;;;5031584;28;20087;-75
2022/01/14 00:14:38;;;;;;;77.75;23.73;;;-1.50;99.90;;;;;;5030814;28;20053;-76
2022/01/14 00:17:06;;;;;;;78.00;25.08;;;-1.50;99.90;;;;;;5030522;28;20484;-76
2022/01/14 00:19:32;;;;;;;81.68;25.30;;;-1.50;99.90;;;;;;5040620;28;20021;-75
2022/01/14 00:21:59;;;;;;;74.22;24.70;;;-1.50;99.90;;;;;;5037274;28;20086;-74
2022/01/14 00:24:30;;;;;;;76.10;25.08;;;-1.50;99.90;;;;;;5036975;28;20056;-72
2022/01/14 00:32:51;;;;;;;68.65;22.05;;;-1.40;99.90;;;;;;5049745;28;20063;-72
2022/01/14 00:35:17;;;;;;;68.82;22.67;;;-1.50;99.90;;;;;;5031654;28;20075;-76
2022/01/14 00:37:43;;;;;;;68.15;23.48;;;-1.50;99.90;;;;;;5031905;28;20053;-76
2022/01/14 00:40:09;;;;;;;77.78;24.02;;;-1.50;99.90;;;;;;5014125;28;20029;-76
2022/01/14 00:42:34;;;;;;;72.53;24.67;;;-1.60;99.90;;;;;;5039840;28;20034;-76
2022/01/14 00:45:00;;;;;;;80.20;25.40;;;-1.50;99.90;;;;;;5047751;28;20045;-76
2022/01/14 00:47:27;;;;;;;77.60;24.70;;;-1.50;99.90;;;;;;5047186;28;20028;-73
2022/01/14 00:49:52;;;;;;;76.15;25.23;;;-1.50;99.90;;;;;;5050772;28;20036;-77
2022/01/14 00:52:18;;;;;;;77.43;24.67;;;-1.50;99.90;;;;;;5040025;28;20381;-75
2022/01/14 00:54:43;;;;;;;71.03;24.50;;;-1.50;99.90;;;;;;5039831;28;20475;-73
2022/01/14 00:59:35;;;;;;;75.47;23.98;;;-1.60;99.90;;;;;;5048601;28;20032;-75
2022/01/14 01:02:02;;;;;;;70.60;25.23;;;-1.60;99.90;;;;;;5049513;28;20029;-76
2022/01/14 01:04:36;;;;;;;68.88;23.17;;;-1.60;99.90;;;;;;5030323;28;20067;-74
2022/01/14 01:07:05;;;;;;;75.80;23.33;;;-1.60;99.90;;;;;;5042286;28;20028;-76
2022/01/14 01:09:31;;;;;;;69.88;21.80;;;-1.60;99.90;;;;;;5044042;28;20036;-75
2022/01/14 01:12:09;;;;;;;63.83;23.17;;;-1.60;99.90;;;;;;5037470;28;20033;-76
2022/01/14 01:14:45;;;;;;;70.25;24.75;;;-1.70;99.90;;;;;;5050341;28;20102;-76
2022/01/14 01:17:12;;;;;;;69.72;22.25;;;-1.70;99.90;;;;;;5049589;28;20048;-76
2022/01/14 01:19:39;;;;;;;77.93;24.60;;;-1.70;99.90;;;;;;5026512;28;20065;-76
2022/01/14 01:22:05;;;;;;;78.15;23.77;;;-1.70;99.90;;;;;;5035922;28;20025;-75
2022/01/14 01:24:30;;;;;;;76.00;24.92;;;-1.70;99.90;;;;;;5039108;28;20605;-75
2022/01/14 01:26:57;;;;;;;69.10;23.02;;;-1.70;99.90;;;;;;5035047;28;20068;-76
2022/01/14 01:31:49;;;;;;;68.57;22.70;;;-1.70;99.90;;;;;;5036785;28;20036;-76
2022/01/14 01:34:19;;;;;;;69.40;21.80;;;-1.80;99.90;;;;;;5042625;28;20052;-75
2022/01/14 01:36:47;;;;;;;69.17;21.97;;;-1.80;99.90;;;;;;5049642;28;20108;-75
2022/01/14 01:39:15;;;;;;;72.90;25.35;;;-1.80;99.90;;;;;;5044062;28;20272;-77
2022/01/14 01:41:47;;;;;;;67.90;22.17;;;-1.80;99.90;;;;;;5038903;28;20529;-75
2022/01/14 01:44:15;;;;;;;72.75;23.25;;;-1.80;99.90;;;;;;5048382;28;20462;-75
2022/01/14 01:46:43;;;;;;;70.90;24.10;;;-1.80;99.90;;;;;;5049298;28;20107;-75
2022/01/14 01:49:10;;;;;;;74.35;23.63;;;-1.80;99.90;;;;;;5044202;28;20433;-75
2022/01/14 01:51:37;;;;;;;71.10;22.25;;;-1.80;99.90;;;;;;5040964;28;20099;-76
2022/01/14 01:54:03;;;;;;;73.57;22.55;;;-1.80;99.90;;;;;;5049983;28;20090;-76
2022/01/14 01:56:29;;;;;;;70.45;22.15;;;-1.90;99.90;;;;;;5049756;28;20033;-72
2022/01/14 01:58:56;;;;;;;66.93;22.92;;;-1.90;99.90;;;;;;5036767;28;20037;-76
2022/01/14 02:01:24;;;;;;;75.18;23.23;;;-2.00;99.90;;;;;;5018631;28;20033;-75
2022/01/14 02:03:50;;;;;;;68.05;23.02;;;-2.00;99.90;;;;;;5047600;28;20067;-76
2022/01/14 02:06:17;;;;;;;70.80;23.38;;;-2.00;99.90;;;;;;5036298;28;20065;-76
2022/01/14 02:08:43;;;;;;;69.25;23.05;;;-2.00;99.90;;;;;;5033539;28;20107;-76
2022/01/14 02:11:08;;;;;;;73.13;22.85;;;-2.00;99.90;;;;;;5040499;28;20141;-75
2022/01/14 02:13:35;;;;;;;75.25;22.75;;;-1.90;99.90;;;;;;5040485;28;20489;-75
2022/01/14 02:16:16;;;;;;;70.07;22.90;;;-2.00;99.90;;;;;;5039387;28;20038;-75
2022/01/14 02:26:51;;;;;;;66.20;21.77;;;-1.90;99.90;;;;;;5032003;28;20061;-76
2022/01/14 02:29:18;;;;;;;65.63;22.02;;;-1.90;99.90;;;;;;5041915;28;20032;-74
2022/01/14 02:31:44;;;;;;;69.72;22.98;;;-2.00;99.90;;;;;;5040733;28;20151;-76
2022/01/14 02:34:12;;;;;;;65.00;21.60;;;-2.00;99.90;;;;;;5034097;28;20032;-76
2022/01/14 02:36:44;;;;;;;60.85;20.85;;;-2.10;99.90;;;;;;5028791;28;20355;-76
2022/01/14 02:39:12;;;;;;;67.93;21.77;;;-2.10;99.90;;;;;;5045772;28;20546;-75
2022/01/14 02:41:39;;;;;;;68.57;21.77;;;-2.10;99.90;;;;;;5039896;28;20088;-75
2022/01/14 02:44:17;;;;;;;68.88;22.08;;;-2.00;99.90;;;;;;5037290;28;20481;-75
2022/01/14 02:46:51;;;;;;;67.22;20.85;;;-2.00;99.90;;;;;;5046981;28;20512;-76
2022/01/14 02:49:17;;;;;;;60.45;20.05;;;-2.10;99.90;;;;;;5049490;28;20098;-76
2022/01/14 02:51:43;;;;;;;59.30;21.52;;;-2.20;99.90;;;;;;5046024;28;20084;-76
2022/01/14 02:54:15;;;;;;;65.43;21.20;;;-2.20;99.90;;;;;;5045579;28;20055;-76
2022/01/14 02:56:47;;;;;;;59.28;20.58;;;-2.20;99.90;;;;;;5043259;28;20037;-76
2022/01/14 02:59:15;;;;;;;65.60;21.25;;;-2.30;99.90;;;;;;5044625;28;20107;-74
2022/01/14 03:01:41;;;;;;;62.90;21.02;;;-2.20;99.90;;;;;;5020596;28;20084;-75
2022/01/14 03:04:08;;;;;;;66.47;21.52;;;-2.20;99.90;;;;;;5036633;28;20497;-75
2022/01/14 03:06:34;;;;;;;71.55;21.58;;;-2.20;99.90;;;;;;5035194;28;20041;-71
2022/01/14 03:09:00;;;;;;;67.22;21.55;;;-2.10;99.90;;;;;;5029242;28;20030;-76
2022/01/14 03:11:49;;;;;;;64.28;22.10;;;-2.10;99.90;;;;;;5043031;28;20026;-75
2022/01/14 03:14:24;;;;;;;65.32;22.00;;;-2.20;99.90;;;;;;5041117;28;20080;-76
2022/01/14 03:16:57;;;;;;;67.35;21.23;;;-2.30;99.90;;;;;;5036866;28;20465;-76
2022/01/14 03:19:25;;;;;;;68.22;21.08;;;-2.30;99.90;;;;;;5040635;28;20481;-76
2022/01/14 03:22:03;;;;;;;65.47;20.23;;;-2.30;99.90;;;;;;5025602;28;20037;-76
2022/01/14 03:27:14;;;;;;;66.75;21.75;;;-2.30;99.90;;;;;;4993418;28;20044;-74
2022/01/14 03:29:40;;;;;;;63.72;20.85;;;-2.20;99.90;;;;;;5045866;28;20480;-76
2022/01/14 03:32:07;;;;;;;63.92;20.48;;;-2.30;99.90;;;;;;5042389;28;20053;-75
2022/01/14 03:34:33;;;;;;;65.32;20.48;;;-2.20;99.90;;;;;;5038332;28;20405;-72
2022/01/14 03:36:59;;;;;;;71.55;22.52;;;-2.30;99.90;;;;;;5034991;28;20109;-75
2022/01/14 03:39:25;;;;;;;58.08;21.35;;;-2.30;99.90;;;;;;5034506;28;20112;-75
2022/01/14 03:41:51;;;;;;;72.45;21.35;;;-2.30;99.90;;;;;;5044932;28;20144;-75
2022/01/14 03:44:17;;;;;;;58.75;20.90;;;-2.30;99.90;;;;;;5038437;28;20069;-74
2022/01/14 03:46:43;;;;;;;68.47;22.58;;;-2.30;99.90;;;;;;5031571;28;20034;-76
2022/01/14 03:49:10;;;;;;;69.60;20.70;;;-2.20;99.90;;;;;;5015881;28;20071;-73
2022/01/14 03:51:35;;;;;;;63.88;21.45;;;-2.20;99.90;;;;;;5037299;28;20052;-69
2022/01/14 03:54:01;;;;;;;60.25;18.83;;;-2.30;99.90;;;;;;5041255;28;20033;-73
2022/01/14 03:56:27;;;;;;;61.38;20.40;;;-2.30;99.90;;;;;;5035515;28;20442;-75
2022/01/14 03:58:54;;;;;;;61.33;19.60;;;-2.40;99.90;;;;;;5018001;28;20068;-73
2022/01/14 04:01:19;;;;;;;55.03;19.80;;;-2.40;99.90;;;;;;5014967;28;20033;-74
2022/01/14 04:03:47;;;;;;;63.28;21.50;;;-2.40;99.90;;;;;;5048579;28;20523;-75
2022/01/14 04:06:13;;;;;;;65.25;20.83;;;-2.40;99.90;;;;;;5030766;28;20478;-75
2022/01/14 04:08:40;;;;;;;72.07;21.85;;;-2.40;99.90;;;;;;5032582;28;20079;-74
2022/01/14 04:11:07;;;;;;;61.70;20.80;;;-2.40;99.90;;;;;;5040560;28;20029;-75
2022/01/14 04:16:06;;;;;;;65.32;21.02;;;-2.40;99.90;;;;;;5041725;28;20106;-74
2022/01/14 04:18:31;;;;;;;64.38;22.05;;;-2.40;99.90;;;;;;5051913;28;20029;-74
2022/01/14 04:20:57;;;;;;;61.03;21.40;;;-2.40;99.90;;;;;;5050089;28;20021;-74
2022/01/14 04:23:23;;;;;;;61.25;20.30;;;-2.40;99.90;;;;;;5051138;28;20111;-75
2022/01/14 04:25:53;;;;;;;64.85;20.88;;;-2.40;99.90;;;;;;5044046;28;20116;-75
2022/01/14 04:28:21;;;;;;;63.13;20.80;;;-2.40;99.90;;;;;;5048411;28;20052;-74
2022/01/14 04:30:48;;;;;;;61.08;20.13;;;-2.40;99.90;;;;;;5045982;28;20044;-75
2022/01/14 04:33:14;;;;;;;57.78;19.85;;;-2.40;99.90;;;;;;5047313;28;20036;-75
2022/01/14 04:35:40;;;;;;;62.58;20.40;;;-2.40;99.90;;;;;;5050808;28;20136;-73
2022/01/14 04:38:06;;;;;;;56.28;19.55;;;-2.40;99.90;;;;;;5033292;28;20536;-74
2022/01/14 04:40:32;;;;;;;58.67;19.05;;;-2.40;99.90;;;;;;5033067;28;20048;-75
2022/01/14 04:42:59;;;;;;;55.13;19.02;;;-2.40;99.90;;;;;;5044226;28;20108;-74
2022/01/14 04:45:41;;;;;;;63.70;20.42;;;-2.50;99.90;;;;;;5033197;28;20033;-74
2022/01/14 04:48:10;;;;;;;58.42;18.35;;;-2.60;99.90;;;;;;5045141;28;20033;-74
2022/01/14 04:50:35;;;;;;;60.22;19.58;;;-2.60;99.90;;;;;;5046747;28;20061;-74
2022/01/14 04:53:01;;;;;;;53.42;18.80;;;-2.50;99.90;;;;;;5044236;28;20064;-74
2022/01/14 04:55:28;;;;;;;62.33;19.63;;;-2.50;99.90;;;;;;5051356;28;20496;-74
2022/01/14 04:57:55;;;;;;;59.50;18.90;;;-2.40;99.90;;;;;;5029371;28;20401;-73
2022/01/14 05:00:23;;;;;;;54.05;19.40;;;-2.50;99.90;;;;;;5044432;28;20033;-74
2022/01/14 05:02:52;;;;;;;61.47;20.30;;;-2.50;99.90;;;;;;5032082;28;20116;-74
2022/01/14 05:05:20;;;;;;;61.67;20.52;;;-2.50;99.90;;;;;;5033054;28;20036;-75
2022/01/14 05:07:47;;;;;;;59.05;20.52;;;-2.60;99.90;;;;;;5023184;28;20374;-75
2022/01/14 05:10:36;;;;;;;57.08;19.25;;;-2.60;99.90;;;;;;5049139;28;20024;-73
2022/01/14 05:13:02;;;;;;;54.65;18.48;;;-2.60;99.90;;;;;;5050198;28;20037;-75
2022/01/14 05:15:28;;;;;;;56.97;19.90;;;-2.60;99.90;;;;;;5050789;28;20033;-74
2022/01/14 05:17:54;;;;;;;57.63;19.02;;;-2.60;99.90;;;;;;5050312;28;20143;-75
2022/01/14 05:20:20;;;;;;;62.30;20.23;;;-2.60;99.90;;;;;;5041503;28;20033;-75
2022/01/14 05:22:46;;;;;;;60.08;19.25;;;-2.60;99.90;;;;;;5048470;28;20044;-75
2022/01/14 05:25:14;;;;;;;55.53;19.00;;;-2.70;99.90;;;;;;5037452;28;20033;-74
2022/01/14 05:27:40;;;;;;;61.03;19.10;;;-2.70;99.90;;;;;;5031091;28;20112;-72
2022/01/14 05:30:09;;;;;;;61.67;20.52;;;-2.70;99.90;;;;;;5047718;28;20029;-74
2022/01/14 05:32:35;;;;;;;54.58;19.60;;;-2.70;99.90;;;;;;5038077;28;20033;-74
2022/01/14 05:35:02;;;;;;;61.25;19.73;;;-2.60;99.90;;;;;;5040172;28;20029;-74
2022/01/14 05:37:28;;;;;;;60.22;20.90;;;-2.50;99.90;;;;;;5051037;28;20470;-74
2022/01/14 05:39:54;;;;;;;56.55;19.05;;;-2.50;99.90;;;;;;5031391;28;20037;-74
2022/01/14 05:42:20;;;;;;;62.90;20.83;;;-2.50;99.90;;;;;;5047386;28;20021;-74
2022/01/14 05:44:45;;;;;;;58.83;20.20;;;-2.60;99.90;;;;;;5037211;28;20130;-72
2022/01/14 05:47:11;;;;;;;60.40;20.33;;;-2.60;99.90;;;;;;5039588;28;20083;-74
2022/01/14 05:49:37;;;;;;;68.85;21.15;;;-2.60;99.90;;;;;;5050545;28;20109;-74
2022/01/14 05:52:03;;;;;;;59.63;19.52;;;-2.60;99.90;;;;;;5049137;28;20791;-74
2022/01/14 05:54:28;;;;;;;57.65;19.75;;;-2.60;99.90;;;;;;5039123;28;20076;-74
2022/01/14 05:56:54;;;;;;;61.53;18.83;;;-2.60;99.90;;;;;;5048949;28;20036;-73
2022/01/14 05:59:20;;;;;;;57.35;19.35;;;-2.60;99.90;;;;;;5032016;28;20036;-75
2022/01/14 06:01:46;;;;;;;64.32;19.63;;;-2.60;99.90;;;;;;5046084;28;20038;-74
2022/01/14 06:04:12;;;;;;;58.17;19.33;;;-2.60;99.90;;;;;;5039012;28;20029;-75
2022/01/14 06:06:38;;;;;;;57.22;19.35;;;-2.60;99.90;;;;;;5048621;28;20040;-73
2022/01/14 06:09:04;;;;;;;60.03;18.63;;;-2.60;99.90;;;;;;5032377;28;20017;-74
2022/01/14 06:11:30;;;;;;;60.35;18.50;;;-2.60;99.90;;;;;;5041045;28;20065;-74
2022/01/14 06:13:57;;;;;;;61.47;20.95;;;-2.50;99.90;;;;;;5045762;28;20516;-74
2022/01/14 06:16:23;;;;;;;53.83;17.92;;;-2.50;99.90;;;;;;5046084;28;20033;-75
2022/01/14 06:18:48;;;;;;;50.75;18.20;;;-2.40;99.90;;;;;;5048728;28;20025;-72
2022/01/14 06:21:15;;;;;;;55.75;18.80;;;-2.40;99.90;;;;;;5040220;28;20036;-75
2022/01/14 06:23:40;;;;;;;54.20;18.67;;;-2.40;99.90;;;;;;5042919;28;20059;-77
2022/01/14 06:26:07;;;;;;;49.95;18.38;;;-2.50;99.90;;;;;;5035122;28;20085;-75
2022/01/14 06:28:32;;;;;;;55.42;19.90;;;-2.50;99.90;;;;;;5044480;28;20052;-75
2022/01/14 06:30:58;;;;;;;60.17;19.80;;;-2.60;99.90;;;;;;5048924;28;20025;-75
2022/01/14 06:33:24;;;;;;;59.35;19.17;;;-2.60;99.90;;;;;;5039709;28;20037;-75
2022/01/14 06:35:49;;;;;;;54.13;18.77;;;-2.70;99.90;;;;;;5037750;28;20529;-75
2022/01/14 06:38:16;;;;;;;50.42;17.90;;;-2.70;99.90;;;;;;5042306;28;20047;-75
2022/01/14 06:40:43;;;;;;;51.03;17.83;;;-2.70;99.90;;;;;;5041369;28;20039;-74
2022/01/14 06:43:08;;;;;;;56.40;18.15;;;-2.70;99.90;;;;;;5027767;28;20025;-74
2022/01/14 06:45:34;;;;;;;52.50;17.90;;;-2.60;99.90;;;;;;5032291;28;20374;-76
2022/01/14 06:48:00;;;;;;;59.25;19.08;;;-2.60;99.90;;;;;;5045661;28;20032;-74
2022/01/14 06:50:26;;;;;;;57.38;19.02;;;-2.60;99.90;;;;;;5048054;28;20035;-75
2022/01/14 06:52:52;;;;;;;56.65;19.45;;;-2.60;99.90;;;;;;5042743;28;20029;-74
2022/01/14 06:55:19;;;;;;;65.35;21.52;;;-2.60;99.90;;;;;;5045142;28;20058;-75
2022/01/14 06:57:45;;;;;;;61.72;20.02;;;-2.60;99.90;;;;;;5038913;28;20037;-74
2022/01/14 07:00:13;;;;;;;60.35;20.90;;;-2.70;99.90;;;;;;5046032;28;20358;-76
2022/01/14 07:02:39;;;;;;;55.85;20.23;;;-2.70;99.90;;;;;;5047505;28;20473;-74
2022/01/14 07:05:06;;;;;;;57.92;19.58;;;-2.70;99.90;;;;;;5040135;28;20021;-75
2022/01/14 07:07:33;;;;;;;61.88;22.50;;;-2.70;99.90;;;;;;5034975;28;20037;-74
2022/01/14 07:09:59;;;;;;;57.50;20.23;;;-2.80;99.90;;;;;;5035986;28;20441;-75
2022/01/14 07:12:26;;;;;;;59.25;19.70;;;-2.80;99.90;;;;;;5028825;28;20029;-75
2022/01/14 07:14:53;;;;;;;54.08;18.17;;;-2.80;99.90;;;;;;5027169;28;20504;-74
2022/01/14 07:17:19;;;;;;;59.58;19.08;;;-2.80;99.90;;;;;;5044999;28;20052;-75
2022/01/14 07:19:46;;;;;;;58.28;19.92;;;-2.70;99.90;;;;;;5024540;28;20033;-74
2022/01/14 07:22:12;;;;;;;57.85;20.00;;;-2.70;99.90;;;;;;5047803;28;20483;-73
2022/01/14 07:24:38;;;;;;;59.72;21.05;;;-2.70;99.90;;;;;;5039973;28;20063;-74
2022/01/14 07:27:04;;;;;;;62.63;20.23;;;-2.60;99.90;;;;;;5048381;28;20039;-75
2022/01/14 07:29:30;;;;;;;66.30;21.25;;;-2.60;99.90;;;;;;5048386;28;20036;-75
2022/01/14 07:31:55;;;;;;;58.70;18.58;;;-2.50;99.90;;;;;;5047805;28;20037;-74
2022/01/14 07:34:21;;;;;;;59.53;20.27;;;-2.40;99.90;;;;;;5022481;28;20032;-75
2022/01/14 07:36:47;;;;;;;54.13;19.67;;;-2.30;99.90;;;;;;5039851;28;20039;-73
2022/01/14 07:39:12;;;;;;;58.30;19.73;;;-2.20;99.90;;;;;;5052475;28;20033;-75
2022/01/14 07:41:38;;;;;;;58.80;20.38;;;-2.10;99.90;;;;;;5052652;28;20029;-74
2022/01/14 07:44:04;;;;;;;59.58;20.00;;;-2.10;99.90;;;;;;5050800;28;20040;-74
2022/01/14 07:46:30;;;;;;;64.63;19.33;;;-2.00;99.90;;;;;;5052185;28;20033;-74
2022/01/14 07:48:56;;;;;;;56.63;19.85;;;-2.00;99.90;;;;;;5051781;28;20036;-75
2022/01/14 07:51:22;;;;;;;54.72;19.40;;;-2.10;99.90;;;;;;5041326;28;20079;-74
2022/01/14 07:53:47;;;;;;;57.50;18.75;;;-2.10;99.90;;;;;;5052015;28;20021;-74
2022/01/14 07:56:13;;;;;;;54.85;18.52;;;-2.10;99.90;;;;;;5048270;28;20088;-74
2022/01/14 07:58:41;;;;;;;55.25;18.13;;;-2.10;99.90;;;;;;5052425;28;20036;-75
2022/01/14 08:01:07;;;;;;;52.90;18.27;;;-2.10;99.90;;;;;;5047374;28;20031;-75
2022/01/14 08:03:33;;;;;;;53.92;18.88;;;-2.10;99.90;;;;;;5036006;28;20115;-75
2022/01/14 08:06:00;;;;;;;57.35;19.00;;;-2.10;99.90;;;;;;5051582;28;20453;-74
2022/01/14 08:08:28;;;;;;;55.17;19.17;;;-2.10;99.90;;;;;;5051744;28;20111;-75
2022/01/14 08:10:55;;;;;;;62.55;21.45;;;-2.10;99.90;;;;;;5049734;28;20028;-74
2022/01/14 08:13:20;;;;;;;58.60;20.70;;;-2.10;99.90;;;;;;5040269;28;20048;-75
2022/01/14 08:15:46;;;;;;;67.28;21.60;;;-2.10;99.90;;;;;;5034046;28;20429;-74
2022/01/14 08:18:12;;;;;;;84.47;28.63;;;-2.00;99.90;;;;;;5051378;28;20025;-74
2022/01/14 08:20:38;;;;;;;86.88;27.10;;;-2.00;99.90;;;;;;5051849;28;20083;-74
2022/01/14 08:23:04;;;;;;;79.38;27.90;;;-1.90;99.90;;;;;;5034964;28;20033;-74
2022/01/14 08:25:29;;;;;;;100.63;32.78;;;-1.70;99.90;;;;;;5052132;28;20059;-75
2022/01/14 08:27:55;;;;;;;88.72;30.40;;;-1.50;99.90;;;;;;5032771;28;20041;-74
2022/01/14 08:30:21;;;;;;;80.13;27.30;;;-1.40;99.90;;;;;;5052175;28;20549;-75
2022/01/14 08:32:46;;;;;;;63.00;24.20;;;-1.30;99.90;;;;;;5035566;28;20052;-74
2022/01/14 08:35:12;;;;;;;66.10;23.25;;;-1.30;99.90;;;;;;5019553;28;20140;-75
2022/01/14 08:37:38;;;;;;;64.43;21.40;;;-1.20;99.90;;;;;;5051974;28;20067;-75
2022/01/14 08:40:07;;;;;;;61.03;21.88;;;-1.10;99.90;;;;;;5050583;28;20037;-75
2022/01/14 08:42:32;;;;;;;55.63;21.42;;;-1.00;99.90;;;;;;5047121;28;20047;-75
2022/01/14 08:44:58;;;;;;;58.63;20.10;;;-0.90;99.90;;;;;;5050074;28;20025;-74
2022/01/14 08:47:24;;;;;;;57.55;19.35;;;-0.80;99.90;;;;;;5050943;28;20480;-74
2022/01/14 08:49:50;;;;;;;57.33;20.83;;;-0.80;99.90;;;;;;5050746;28;20075;-74
2022/01/14 08:52:16;;;;;;;61.08;19.88;;;-0.70;99.90;;;;;;5039787;28;20041;-76
2022/01/14 08:54:42;;;;;;;55.92;18.95;;;-0.70;99.90;;;;;;5048273;28;20546;-74
2022/01/14 08:57:08;;;;;;;55.28;19.63;;;-0.60;99.90;;;;;;5050252;28;20032;-75
2022/01/14 08:59:34;;;;;;;53.47;19.13;;;-0.60;99.90;;;;;;5051391;28;20032;-75
2022/01/14 09:02:01;;;;;;;54.42;20.17;;;-0.60;99.90;;;;;;5041197;28;20067;-75
2022/01/14 09:04:27;;;;;;;54.03;20.92;;;-0.50;99.90;;;;;;5020873;28;20437;-75
2022/01/14 09:06:52;;;;;;;56.63;20.27;;;-0.40;99.90;;;;;;5050842;28;20036;-74
2022/01/14 09:09:18;;;;;;;63.88;21.63;;;-0.30;99.90;;;;;;5050314;28;20473;-75
2022/01/14 09:11:44;;;;;;;59.63;21.02;;;-0.10;99.90;;;;;;5050328;28;20025;-76
2022/01/14 09:14:09;;;;;;;55.08;21.13;;;0.10;99.90;;;;;;5032206;28;20080;-76
2022/01/14 09:16:36;;;;;;;57.70;19.85;;;0.20;99.90;;;;;;5032718;28;20048;-75
2022/01/14 09:19:02;;;;;;;57.22;21.13;;;0.40;99.90;;;;;;5050147;28;20082;-76
2022/01/14 09:21:28;;;;;;;55.50;20.70;;;0.50;99.90;;;;;;5029355;28;20081;-75
2022/01/14 09:24:03;;;;;;;54.50;21.10;;;0.60;99.90;;;;;;5042347;28;20040;-73
2022/01/14 09:26:31;;;;;;;52.70;21.40;;;0.80;99.90;;;;;;5044288;28;20037;-76
2022/01/14 09:28:57;;;;;;;57.75;20.48;;;1.00;99.90;;;;;;5038456;28;20545;-76
2022/01/14 09:31:22;;;;;;;59.13;21.23;;;1.10;99.90;;;;;;5047928;28;20285;-76
2022/01/14 09:33:48;;;;;;;56.28;21.60;;;1.20;99.90;;;;;;5045858;28;20466;-75
2022/01/14 09:36:14;;;;;;;61.45;20.90;;;1.40;99.90;;;;;;5049610;28;20029;-76
2022/01/14 09:38:39;;;;;;;53.08;20.33;;;1.50;99.90;;;;;;5050444;28;20032;-76
2022/01/14 09:41:07;;;;;;;54.13;19.92;;;1.70;99.90;;;;;;5035298;28;20068;-77
2022/01/14 09:43:36;;;;;;;54.08;20.73;;;1.80;99.90;;;;;;5048115;28;20040;-79
2022/01/14 09:46:06;;;;;;;50.15;20.17;;;1.90;99.90;;;;;;5049332;28;20052;-77
2022/01/14 09:48:33;;;;;;;48.55;19.33;;;2.10;99.90;;;;;;5050105;28;20048;-76
2022/01/14 09:51:00;;;;;;;50.88;19.48;;;2.20;99.90;;;;;;5040860;28;20025;-77
2022/01/14 09:53:28;;;;;;;48.33;18.42;;;2.40;99.90;;;;;;5012294;28;20069;-77
2022/01/14 09:55:53;;;;;;;50.92;18.58;;;2.70;99.90;;;;;;5033666;28;20083;-75
2022/01/14 09:58:26;;;;;;;46.60;18.85;;;2.80;99.90;;;;;;5031551;28;20041;-76
2022/01/14 10:01:15;;;;;;;47.92;19.13;;;3.00;99.90;;;;;;5048003;28;20032;-78
2022/01/14 10:03:53;;;;;;;40.88;17.20;;;3.10;99.90;;;;;;5028872;28;20029;-78
2022/01/14 10:06:45;;;;;;;44.20;17.88;;;3.20;99.90;;;;;;5049482;28;20025;-80
2022/01/14 10:09:16;;;;;;;46.83;19.52;;;3.40;99.90;;;;;;5048946;28;20126;-78
2022/01/14 10:11:57;;;;;;;40.40;17.27;;;3.50;99.90;;;;;;5041938;28;20171;-77
2022/01/14 10:14:23;;;;;;;39.88;15.48;;;3.50;99.90;;;;;;5029580;28;20080;-78
2022/01/14 10:17:05;;;;;;;29.52;11.82;;;3.50;99.90;;;;;;5040270;28;20469;-79
2022/01/14 10:19:38;;;;;;;34.28;14.57;;;3.70;99.90;;;;;;5040754;28;20583;-80
2022/01/14 10:22:24;;;;;;;29.63;11.43;;;3.90;99.90;;;;;;5029180;28;20150;-80
2022/01/14 10:25:19;;;;;;;32.08;11.90;;;3.90;99.90;;;;;;5011949;28;20033;-80
2022/01/14 10:27:51;;;;;;;27.95;11.55;;;3.90;99.90;;;;;;5021381;28;20053;-77
2022/01/14 10:30:28;;;;;;;27.17;10.63;;;4.00;99.90;;;;;;5016102;28;20033;-78
2022/01/14 10:33:04;;;;;;;21.23;8.40;;;4.10;99.90;;;;;;5031514;28;20139;-78
2022/01/14 10:35:42;;;;;;;24.98;9.85;;;4.20;99.90;;;;;;5049582;28;20067;-79
2022/01/14 10:38:10;;;;;;;26.45;9.98;;;4.40;99.90;;;;;;5027613;28;20028;-79
2022/01/14 10:40:41;;;;;;;23.17;10.00;;;4.50;99.90;;;;;;5048702;28;20029;-77
2022/01/14 10:43:10;;;;;;;19.05;8.27;;;4.70;99.90;;;;;;5044548;28;20031;-78
2022/01/14 10:45:37;;;;;;;20.10;7.88;;;4.80;99.90;;;;;;5029675;28;20037;-79
2022/01/14 10:48:07;;;;;;;19.30;8.27;;;4.90;99.90;;;;;;5030441;28;20094;-78
2022/01/14 10:51:00;;;;;;;19.35;8.00;;;4.80;99.90;;;;;;5030974;28;20042;-79
2022/01/14 10:53:32;;;;;;;18.70;7.47;;;4.90;99.90;;;;;;5026732;28;20120;-80
2022/01/14 10:56:09;;;;;;;17.83;8.10;;;5.10;99.90;;;;;;5041636;28;20048;-76
2022/01/14 10:58:38;;;;;;;21.33;8.02;;;5.20;99.90;;;;;;5049292;28;20040;-80
2022/01/14 11:01:06;;;;;;;19.08;7.93;;;5.20;99.90;;;;;;5048404;28;20175;-79
2022/01/14 11:03:37;;;;;;;16.88;7.60;;;5.30;99.90;;;;;;5026777;28;20087;-77
2022/01/14 11:06:29;;;;;;;17.98;7.57;;;5.40;99.90;;;;;;5048182;28;20036;-80
2022/01/14 11:08:58;;;;;;;15.63;6.68;;;5.50;99.90;;;;;;5049068;28;20041;-80
2022/01/14 11:11:25;;;;;;;17.77;7.50;;;5.60;99.90;;;;;;5048266;28;20071;-81
2022/01/14 11:13:51;;;;;;;19.95;8.65;;;5.60;99.90;;;;;;5034844;28;20057;-79
2022/01/14 11:16:17;;;;;;;18.75;7.78;;;5.60;99.90;;;;;;5028513;28;20033;-80
2022/01/14 11:18:45;;;;;;;21.98;7.75;;;5.60;99.90;;;;;;5035707;28;20462;-79
2022/01/14 11:23:55;;;;;;;21.23;9.00;;;5.80;99.90;;;;;;5048191;28;20140;-80
2022/01/14 11:26:22;;;;;;;27.95;9.20;;;5.80;99.90;;;;;;5048081;28;20048;-80
2022/01/14 11:28:48;;;;;;;17.75;8.25;;;6.00;99.90;;;;;;5030756;28;20040;-78
2022/01/14 11:31:27;;;;;;;19.50;8.23;;;6.10;99.90;;;;;;5048246;28;20036;-80
2022/01/14 11:33:53;;;;;;;18.33;7.80;;;6.00;99.90;;;;;;5042205;28;20040;-80
2022/01/14 11:36:19;;;;;;;18.08;7.88;;;6.00;99.90;;;;;;5048043;28;20795;-80
2022/01/14 11:38:46;;;;;;;17.83;7.88;;;6.10;99.90;;;;;;5048792;28;20029;-82
2022/01/14 11:41:16;;;;;;;17.15;6.97;;;6.20;99.90;;;;;;5048134;28;20032;-82
2022/01/14 11:43:54;;;;;;;15.93;7.27;;;6.30;99.90;;;;;;5019906;28;20490;-80
2022/01/14 11:46:32;;;;;;;14.50;7.00;;;6.20;99.90;;;;;;5010124;28;20296;-80
2022/01/14 11:48:58;;;;;;;17.48;6.97;;;6.50;99.90;;;;;;5028664;28;20113;-77
2022/01/14 11:51:24;;;;;;;17.27;7.05;;;6.60;99.90;;;;;;5030569;28;20140;-80
2022/01/14 11:53:54;;;;;;;15.50;7.07;;;6.70;99.90;;;;;;5040502;23;20024;-79
2022/01/14 11:56:32;;;;;;;16.58;7.45;;;6.70;99.90;;;;;;5009209;28;20152;-79
2022/01/14 11:59:17;;;;;;;18.05;7.10;;;6.90;99.90;;;;;;5028326;28;20129;-79
2022/01/14 12:01:43;;;;;;;14.98;6.75;;;7.00;99.90;;;;;;5028019;28;20091;-80
2022/01/14 12:04:09;;;;;;;14.77;6.75;;;7.20;99.90;;;;;;5027903;28;20029;-79
2022/01/14 12:06:50;;;;;;;15.32;6.03;;;7.30;99.90;;;;;;5028527;28;20087;-80
2022/01/14 12:09:21;;;;;;;13.50;6.13;;;7.30;99.90;;;;;;5027319;28;20034;-78
2022/01/14 12:12:30;;;;;;;12.60;5.97;;;7.40;99.90;;;;;;5027965;28;20080;-71
2022/01/14 12:15:00;;;;;;;9.32;5.00;;;7.40;99.90;;;;;;5009968;28;20037;-75
2022/01/14 12:17:52;;;;;;;13.07;5.55;;;7.50;99.90;;;;;;5021016;28;20144;-81
2022/01/14 12:20:18;;;;;;;11.13;5.47;;;7.60;99.90;;;;;;5023249;28;20037;-84
2022/01/14 12:23:06;;;;;;;15.65;5.60;;;7.70;99.90;;;;;;5030940;28;20510;-80
2022/01/14 12:25:50;;;;;;;12.15;4.97;;;7.70;99.90;;;;;;5030675;28;20049;-81
2022/01/14 12:28:20;;;;;;;11.77;4.85;;;7.70;99.90;;;;;;5023194;28;20034;-80
2022/01/14 12:31:06;;;;;;;10.93;4.65;;;7.50;99.90;;;;;;5030651;28;20099;-82
2022/01/14 12:33:48;;;;;;;10.65;4.50;;;7.70;99.90;;;;;;5031500;28;20043;-80
2022/01/14 12:36:20;;;;;;;11.23;4.85;;;7.80;99.90;;;;;;5009194;28;20040;-83
2022/01/14 12:38:47;;;;;;;10.43;5.32;;;7.70;99.90;;;;;;5030524;28;20382;-81
2022/01/14 12:41:25;;;;;;;11.95;5.13;;;7.80;99.90;;;;;;5030380;28;20025;-83
2022/01/14 12:43:53;;;;;;;11.30;5.30;;;8.00;99.90;;;;;;5012831;28;20029;-79
2022/01/14 12:46:41;;;;;;;10.98;5.28;;;8.00;99.90;;;;;;5030680;28;20037;-82
2022/01/14 12:49:32;;;;;;;10.18;5.05;;;8.30;99.90;;;;;;5025327;28;20125;-77
2022/01/14 12:52:02;;;;;;;13.27;5.60;;;8.50;99.90;;;;;;5020210;28;20045;-77
2022/01/14 12:54:31;;;;;;;13.73;5.77;;;8.50;99.90;;;;;;5026525;28;20033;-79
2022/01/14 12:57:01;;;;;;;13.70;5.63;;;8.70;99.90;;;;;;5031228;28;20275;-81
2022/01/14 12:59:27;;;;;;;13.85;5.13;;;8.50;99.90;;;;;;5030074;28;20029;-82
2022/01/14 13:01:55;;;;;;;14.77;5.47;;;8.50;99.90;;;;;;5031299;28;20041;-82
2022/01/14 13:04:23;;;;;;;13.23;5.70;;;8.60;99.90;;;;;;5030054;28;20033;-80
2022/01/14 13:06:53;;;;;;;12.52;5.07;;;8.70;99.90;;;;;;5030985;28;20030;-80